Time;durP1;ratioP1;P1;durP2;ratioP2;P2;SDS_P1;SDS_P2;PMS_P1;PMS_P2;Temp;Humidity;BMP_temperature;BMP_pressure;BME280_temperature;BME280_humidity;BME280_pressure;Samples;Min_cycle;Max_cycle;Signal;HPM_P1;HPM_P2
2021/01/27 03:47:50;;;;;;;2.63;1.40;;;-0.70;85.00;;;;;;5184421;22;90086;-86
2021/01/27 03:50:38;;;;;;;1.45;1.10;;;-0.70;85.10;;;;;;4973557;28;86737;-86
2021/01/27 03:53:16;;;;;;;2.95;1.48;;;-0.70;85.30;;;;;;4961675;28;88097;-87
2021/01/27 03:56:25;;;;;;;1.48;1.08;;;-0.70;85.20;;;;;;4971272;28;86702;-86
2021/01/27 03:58:55;;;;;;;1.60;1.02;;;-0.70;83.50;;;;;;4981881;28;86635;-85
2021/01/27 04:01:27;;;;;;;2.38;1.33;;;-0.60;82.30;;;;;;4978031;28;86393;-86
2021/01/27 04:04:16;;;;;;;1.20;1.20;;;-0.60;82.60;;;;;;4980514;28;88224;-85
2021/01/27 04:06:44;;;;;;;2.08;1.30;;;;;;;;;;4974100;28;86612;-85
2021/01/27 04:09:25;;;;;;;1.17;1.15;;;-0.60;82.30;;;;;;4981539;28;86426;-86
2021/01/27 04:11:51;;;;;;;1.27;1.17;;;;;;;;;;4974689;28;86403;-86
2021/01/27 04:14:31;;;;;;;0.98;0.98;;;-0.60;81.90;;;;;;4994352;28;87653;-86
2021/01/27 04:16:59;;;;;;;3.53;1.38;;;-0.50;80.70;;;;;;4960508;28;87710;-86
2021/01/27 04:19:31;;;;;;;1.45;1.33;;;;;;;;;;4968898;28;86262;-86
2021/01/27 04:21:56;;;;;;;1.48;1.05;;;-0.50;81.20;;;;;;4963998;28;86727;-84
2021/01/27 04:24:22;;;;;;;1.25;1.15;;;-0.50;81.20;;;;;;4983786;28;87204;-83
2021/01/27 04:26:48;;;;;;;0.95;0.95;;;-0.50;81.10;;;;;;4973071;28;90558;-85
2021/01/27 04:29:13;;;;;;;1.17;1.10;;;-0.50;80.20;;;;;;4976459;28;86914;-83
2021/01/27 04:31:39;;;;;;;1.13;1.00;;;-0.50;80.90;;;;;;4994503;28;86352;-83
2021/01/27 04:34:05;;;;;;;1.63;1.27;;;-0.50;81.00;;;;;;4968207;28;90287;-82
2021/01/27 04:36:30;;;;;;;1.75;1.42;;;-0.50;80.30;;;;;;4978767;28;87126;-81
2021/01/27 04:38:56;;;;;;;0.95;0.95;;;-0.50;81.30;;;;;;4956263;28;88091;-81
2021/01/27 04:41:22;;;;;;;2.60;1.30;;;-0.50;80.60;;;;;;4970892;28;86977;-81
2021/01/27 04:43:48;;;;;;;2.45;1.20;;;-0.50;80.00;;;;;;4980910;28;88486;-82
2021/01/27 04:46:23;;;;;;;1.05;0.98;;;-0.50;79.80;;;;;;4962269;28;90264;-81
2021/01/27 04:48:54;;;;;;;1.23;1.20;;;-0.50;80.50;;;;;;4971777;28;86854;-81
2021/01/27 04:51:38;;;;;;;1.08;1.08;;;-0.60;79.90;;;;;;4971765;28;87060;-81
2021/01/27 04:54:30;;;;;;;1.52;1.42;;;-0.60;80.30;;;;;;4971239;28;88210;-80
2021/01/27 04:56:55;;;;;;;0.85;0.85;;;-0.60;80.10;;;;;;4991304;28;86744;-81
2021/01/27 04:59:53;;;;;;;1.25;1.10;;;-0.60;79.60;;;;;;4971890;28;86623;-81
2021/01/27 05:02:29;;;;;;;1.40;1.17;;;-0.60;79.20;;;;;;4966650;28;86394;-81
2021/01/27 05:05:09;;;;;;;1.50;1.40;;;-0.60;77.60;;;;;;4969629;28;89750;-81
2021/01/27 05:07:43;;;;;;;1.10;1.00;;;-0.60;78.70;;;;;;4982814;28;88094;-81
2021/01/27 05:10:14;;;;;;;1.63;0.85;;;-0.60;78.40;;;;;;4987361;28;86848;-81
2021/01/27 05:12:52;;;;;;;2.77;1.20;;;-0.60;78.30;;;;;;4991211;28;86746;-82
2021/01/27 05:15:18;;;;;;;1.20;1.08;;;-0.60;76.90;;;;;;4974483;28;87536;-81
2021/01/27 05:17:46;;;;;;;1.40;1.30;;;-0.60;77.80;;;;;;4988110;28;86798;-81
2021/01/27 05:20:14;;;;;;;2.70;1.33;;;-0.50;77.40;;;;;;4964077;28;86857;-81
2021/01/27 05:22:40;;;;;;;0.63;0.63;;;-0.60;78.50;;;;;;4988741;28;85487;-80
2021/01/27 05:25:09;;;;;;;1.63;1.45;;;-0.60;79.00;;;;;;4991542;28;87498;-80
2021/01/27 05:27:37;;;;;;;1.00;1.00;;;-0.60;78.70;;;;;;4989974;28;87627;-79
2021/01/27 05:30:23;;;;;;;2.15;1.60;;;-0.70;78.90;;;;;;4991249;28;87932;-81
2021/01/27 05:32:57;;;;;;;2.28;1.23;;;-0.70;78.60;;;;;;4990344;28;86206;-80
2021/01/27 05:35:31;;;;;;;1.33;1.00;;;-0.70;78.90;;;;;;4991588;28;86945;-82
2021/01/27 05:37:59;;;;;;;3.60;1.15;;;-0.70;79.50;;;;;;4992323;28;87194;-81
2021/01/27 05:40:33;;;;;;;1.50;0.93;;;-0.70;78.90;;;;;;4970135;28;86983;-80
2021/01/27 05:43:11;;;;;;;1.55;1.33;;;-0.70;78.70;;;;;;4983793;28;86845;-82
2021/01/27 05:45:49;;;;;;;1.00;0.90;;;-0.70;78.50;;;;;;4996599;28;87058;-81
2021/01/27 05:48:26;;;;;;;2.25;1.15;;;-0.60;78.60;;;;;;4977447;28;90088;-81
2021/01/27 05:51:13;;;;;;;1.00;1.00;;;-0.60;78.10;;;;;;4996691;28;87013;-81
2021/01/27 05:53:39;;;;;;;1.15;1.05;;;-0.60;77.80;;;;;;4979863;28;87320;-83
2021/01/27 05:56:15;;;;;;;1.55;1.45;;;-0.60;77.70;;;;;;4994835;28;88097;-83
2021/01/27 05:58:46;;;;;;;2.72;1.27;;;-0.60;78.10;;;;;;4984142;28;88439;-81
2021/01/27 06:01:14;;;;;;;;;;;-0.60;76.90;;;;;;4995809;28;86996;-81
2021/01/27 06:04:08;;;;;;;1.88;1.13;;;-0.50;77.40;;;;;;4991854;28;87054;-83
2021/01/27 06:06:36;;;;;;;1.42;1.38;;;-0.50;76.10;;;;;;4974466;28;87134;-84
2021/01/27 06:09:04;;;;;;;3.45;1.10;;;-0.50;76.50;;;;;;4996330;28;87379;-85
2021/01/27 06:11:31;;;;;;;1.95;1.33;;;;;;;;;;4993423;28;86808;-85
2021/01/27 06:14:12;;;;;;;1.33;1.23;;;-0.40;76.80;;;;;;4966125;28;86327;-85
2021/01/27 06:16:46;;;;;;;1.77;1.67;;;-0.50;76.90;;;;;;4974268;28;86751;-85
2021/01/27 06:19:19;;;;;;;3.08;1.30;;;-0.40;77.00;;;;;;4999077;28;87039;-85
2021/01/27 06:22:12;;;;;;;6.43;1.48;;;-0.40;77.10;;;;;;4995952;28;87229;-84
2021/01/27 06:25:03;;;;;;;1.45;1.35;;;-0.40;76.10;;;;;;4976196;28;87000;-83
2021/01/27 06:28:06;;;;;;;1.00;1.00;;;-0.40;76.20;;;;;;4976735;28;87627;-85
2021/01/27 06:30:34;;;;;;;1.00;1.00;;;-0.30;74.50;;;;;;4960398;28;90046;-84
2021/01/27 06:33:00;;;;;;;1.55;1.20;;;;;;;;;;4956243;28;87153;-82
2021/01/27 06:35:32;;;;;;;2.33;1.27;;;-0.10;70.60;;;;;;4975209;28;87341;-84
2021/01/27 06:38:28;;;;;;;1.08;1.08;;;0.10;67.70;;;;;;4972918;28;87764;-82
2021/01/27 06:41:31;;;;;;;1.92;1.27;;;0.10;68.30;;;;;;4976258;28;87081;-84
2021/01/27 06:44:12;;;;;;;3.83;1.60;;;0.20;70.00;;;;;;4970114;28;87083;-79
2021/01/27 06:49:13;;;;;;;0.80;0.80;;;0.20;68.70;;;;;;5030981;28;83439;-86
2021/01/27 06:52:11;;;;;;;1.85;1.40;;;0.20;68.80;;;;;;5031883;28;83962;-81
2021/01/27 06:55:16;;;;;;;0.90;0.90;;;0.20;69.30;;;;;;5006370;28;84229;-82
2021/01/27 06:58:00;;;;;;;1.40;1.30;;;0.20;69.40;;;;;;5028663;28;86195;-84
2021/01/27 07:00:40;;;;;;;3.08;1.20;;;0.20;69.90;;;;;;5024875;28;83860;-85
2021/01/27 07:03:54;;;;;;;2.00;1.43;;;0.20;70.10;;;;;;5055395;27;83616;-85
2021/01/27 07:06:30;;;;;;;3.97;1.52;;;0.20;70.10;;;;;;5019319;28;83262;-84
2021/01/27 07:09:43;;;;;;;3.42;1.42;;;0.20;70.60;;;;;;5031570;28;84349;-85
2021/01/27 07:12:44;;;;;;;1.55;1.13;;;0.10;71.20;;;;;;4977037;28;83940;-83
2021/01/27 07:15:34;;;;;;;1.48;1.38;;;0.00;71.70;;;;;;4984620;28;83840;-85
2021/01/27 07:18:02;;;;;;;4.75;1.73;;;0.00;73.20;;;;;;5014933;28;83665;-79
2021/01/27 07:20:41;;;;;;;1.75;1.30;;;0.00;73.40;;;;;;5028100;28;84354;-84
2021/01/27 07:23:11;;;;;;;2.80;1.67;;;-0.10;72.80;;;;;;5036682;28;84017;-80
2021/01/27 07:25:52;;;;;;;1.60;1.50;;;-0.10;73.20;;;;;;5027186;28;83364;-84
2021/01/27 07:28:27;;;;;;;2.40;1.30;;;-0.10;73.80;;;;;;5020220;28;83544;-82
2021/01/27 07:31:16;;;;;;;2.78;1.40;;;-0.10;74.00;;;;;;5021391;28;84029;-81
2021/01/27 07:34:05;;;;;;;2.35;1.58;;;-0.10;75.50;;;;;;5025164;28;86033;-83
2021/01/27 07:36:58;;;;;;;3.92;1.17;;;-0.10;75.70;;;;;;5030240;28;83678;-85
2021/01/27 07:39:35;;;;;;;2.20;1.67;;;-0.70;74.40;;;;;;5025877;28;83637;-84
2021/01/27 07:42:21;;;;;;;2.20;1.85;;;-0.20;75.20;;;;;;5024388;28;84623;-84
2021/01/27 07:44:57;;;;;;;2.25;1.65;;;-0.10;75.10;;;;;;5019327;28;83784;-85
2021/01/27 07:47:50;;;;;;;4.05;1.60;;;0.00;73.90;;;;;;5026199;28;83356;-84
2021/01/27 07:50:19;;;;;;;7.22;2.10;;;0.10;73.10;;;;;;5026194;28;83815;-83
2021/01/27 07:53:16;;;;;;;7.05;1.90;;;0.10;73.20;;;;;;5022887;28;87831;-85
2021/01/27 07:56:02;;;;;;;2.78;1.50;;;0.20;73.00;;;;;;5013742;28;84225;-85
2021/01/27 07:58:45;;;;;;;4.07;1.45;;;0.20;74.00;;;;;;5013965;28;83969;-85
2021/01/27 08:01:42;;;;;;;2.97;1.60;;;0.30;73.00;;;;;;5030987;28;83226;-83
2021/01/27 08:04:37;;;;;;;2.40;1.30;;;0.40;73.30;;;;;;4995459;28;83318;-85
2021/01/27 08:07:05;;;;;;;1.70;1.48;;;0.50;68.70;;;;;;5003515;28;83497;-85
2021/01/27 08:09:39;;;;;;;2.70;1.38;;;0.50;69.20;;;;;;5003977;28;83778;-85
2021/01/27 08:12:18;;;;;;;2.67;1.60;;;0.50;71.30;;;;;;5003695;28;83519;-85
2021/01/27 08:15:06;;;;;;;2.25;1.52;;;0.70;70.90;;;;;;4994550;28;84529;-86
2021/01/27 08:17:45;;;;;;;3.70;2.10;;;0.80;71.80;;;;;;5009444;28;84148;-83
2021/01/27 08:20:25;;;;;;;3.63;2.75;;;1.00;72.10;;;;;;5011104;28;83376;-85
2021/01/27 08:23:02;;;;;;;4.45;2.40;;;1.10;72.40;;;;;;5009024;28;83565;-85
2021/01/27 08:25:47;;;;;;;3.47;2.35;;;1.30;74.00;;;;;;4997837;28;83927;-86
2021/01/27 08:28:38;;;;;;;2.63;2.25;;;1.30;74.50;;;;;;4998431;28;83578;-84
2021/01/27 08:31:10;;;;;;;3.50;2.13;;;1.40;73.50;;;;;;5011228;28;83812;-86
2021/01/27 08:33:49;;;;;;;3.10;1.90;;;1.50;73.20;;;;;;4999682;28;83516;-86
2021/01/27 08:36:34;;;;;;;3.63;1.92;;;1.50;72.40;;;;;;5012010;28;84495;-86
2021/01/27 08:39:06;;;;;;;3.63;1.70;;;1.50;67.00;;;;;;5012855;28;83858;-86
2021/01/27 08:41:56;;;;;;;2.92;1.60;;;1.60;67.00;;;;;;5003965;28;83748;-86
2021/01/27 08:44:25;;;;;;;2.60;1.50;;;1.60;67.10;;;;;;5004473;28;83370;-86
2021/01/27 08:47:23;;;;;;;1.88;1.70;;;1.60;65.10;;;;;;4995027;28;84269;-85
2021/01/27 08:49:58;;;;;;;4.22;2.03;;;1.60;65.70;;;;;;5012721;28;84110;-85
2021/01/27 08:52:24;;;;;;;4.45;1.70;;;1.60;65.70;;;;;;5006466;28;83677;-85
2021/01/27 08:54:51;;;;;;;6.18;1.85;;;1.70;66.20;;;;;;5014156;28;84016;-85
2021/01/27 08:57:17;;;;;;;3.92;2.40;;;;;;;;;;5013226;28;87210;-85
2021/01/27 09:00:23;;;;;;;2.08;1.30;;;1.50;64.20;;;;;;5001869;28;88307;-86
2021/01/27 09:02:59;;;;;;;1.25;1.15;;;1.50;65.90;;;;;;4990659;28;83806;-85
2021/01/27 09:05:25;;;;;;;3.22;1.30;;;1.50;64.90;;;;;;5011949;28;83712;-86
2021/01/27 09:08:09;;;;;;;1.42;1.23;;;1.50;64.80;;;;;;5011422;28;83862;-86
2021/01/27 09:10:41;;;;;;;2.63;2.42;;;1.40;65.00;;;;;;5009708;28;83979;-86
2021/01/27 09:13:34;;;;;;;1.77;1.20;;;1.40;65.50;;;;;;5010292;28;82983;-86
2021/01/27 09:16:06;;;;;;;2.38;1.33;;;1.50;67.80;;;;;;5002090;28;83804;-85
2021/01/27 09:18:32;;;;;;;;;;;1.50;65.80;;;;;;4996752;28;84562;-85
2021/01/27 09:21:10;;;;;;;3.72;1.65;;;1.50;66.30;;;;;;5013118;28;84656;-85
2021/01/27 09:23:36;;;;;;;2.50;1.60;;;1.50;66.40;;;;;;5003864;28;83513;-85
2021/01/27 09:26:16;;;;;;;3.35;1.48;;;1.50;67.70;;;;;;5012847;28;83398;-82
2021/01/27 09:28:42;;;;;;;2.38;1.55;;;1.50;68.70;;;;;;4999471;28;83766;-84
2021/01/27 09:31:23;;;;;;;1.65;1.48;;;1.50;69.40;;;;;;5001756;28;83700;-83
2021/01/27 09:33:50;;;;;;;2.37;1.90;;;1.60;69.70;;;;;;5002266;28;83806;-83
2021/01/27 09:36:23;;;;;;;2.97;1.50;;;1.60;70.90;;;;;;5008430;28;84213;-86
2021/01/27 09:38:51;;;;;;;2.40;2.05;;;1.70;71.70;;;;;;5007393;28;85157;-84
2021/01/27 09:41:24;;;;;;;3.08;1.75;;;1.70;72.60;;;;;;4996953;28;83740;-85
2021/01/27 09:43:50;;;;;;;2.33;1.88;;;1.70;71.30;;;;;;5009867;28;83505;-84
2021/01/27 09:46:27;;;;;;;1.55;1.45;;;1.70;72.20;;;;;;4999648;28;83435;-84
2021/01/27 09:48:57;;;;;;;3.90;1.90;;;1.70;72.60;;;;;;4997348;28;84052;-84
2021/01/27 09:51:24;;;;;;;3.42;1.60;;;1.80;72.60;;;;;;4999268;28;86533;-84
2021/01/27 09:53:57;;;;;;;1.70;1.40;;;1.70;73.30;;;;;;5002952;28;83830;-83
2021/01/27 09:56:24;;;;;;;1.65;1.38;;;1.80;72.10;;;;;;5004657;28;83711;-83
2021/01/27 09:58:51;;;;;;;2.03;1.20;;;1.60;73.00;;;;;;4998181;28;84531;-85
2021/01/27 10:01:21;;;;;;;5.18;2.50;;;1.50;73.80;;;;;;4994717;28;83893;-85
2021/01/27 10:03:50;;;;;;;2.38;1.30;;;1.50;75.20;;;;;;4999926;28;83672;-84
2021/01/27 10:06:35;;;;;;;1.92;1.65;;;1.50;78.20;;;;;;4998301;28;83733;-85
2021/01/27 10:09:22;;;;;;;2.10;1.65;;;1.50;80.40;;;;;;5003263;28;83910;-86
2021/01/27 10:11:58;;;;;;;1.92;1.67;;;1.50;77.60;;;;;;5005936;28;84162;-85
2021/01/27 10:14:28;;;;;;;5.13;1.80;;;1.40;82.60;;;;;;5005981;28;83161;-84
2021/01/27 10:17:09;;;;;;;3.38;1.77;;;1.30;83.10;;;;;;5011061;28;83996;-83
2021/01/27 10:19:47;;;;;;;3.20;2.10;;;1.20;86.10;;;;;;4997791;28;86112;-84
2021/01/27 10:22:14;;;;;;;2.15;1.30;;;1.00;89.00;;;;;;5001115;28;85448;-83
2021/01/27 10:24:51;;;;;;;2.28;1.42;;;0.80;90.80;;;;;;5012992;28;83745;-83
2021/01/27 10:27:38;;;;;;;5.22;2.50;;;0.60;94.30;;;;;;5004687;28;83776;-83
2021/01/27 10:30:15;;;;;;;2.65;1.70;;;0.50;98.60;;;;;;4999116;28;84455;-83
2021/01/27 10:32:43;;;;;;;2.25;2.05;;;0.30;99.90;;;;;;5003109;28;87269;-84
2021/01/27 10:35:25;;;;;;;3.50;1.90;;;0.20;99.90;;;;;;4998818;28;83794;-82
2021/01/27 10:38:14;;;;;;;3.63;2.10;;;0.10;99.90;;;;;;5005255;28;84001;-82
2021/01/27 10:41:00;;;;;;;3.72;2.15;;;-0.10;99.90;;;;;;5000909;28;84660;-83
2021/01/27 10:43:29;;;;;;;5.15;2.83;;;-0.20;99.90;;;;;;5002823;28;84687;-86
2021/01/27 10:45:55;;;;;;;2.42;2.05;;;;;;;;;;5012436;28;83739;-84
2021/01/27 10:48:21;;;;;;;3.15;2.72;;;-0.20;99.90;;;;;;5005980;28;83686;-84
2021/01/27 10:51:00;;;;;;;2.72;2.03;;;-0.20;99.90;;;;;;5028390;28;84228;-82
2021/01/27 10:53:28;;;;;;;4.75;2.15;;;-0.20;99.90;;;;;;5003876;28;83970;-84
2021/01/27 10:55:55;;;;;;;3.22;2.17;;;-0.60;99.90;;;;;;5018416;28;82986;-82
2021/01/27 10:58:24;;;;;;;3.75;2.00;;;-0.70;99.90;;;;;;5022702;28;83699;-85
2021/01/27 11:00:52;;;;;;;2.55;1.60;;;-0.80;99.90;;;;;;4999503;28;83569;-84
2021/01/27 11:03:18;;;;;;;3.03;1.55;;;;;;;;;;5005516;28;83824;-85
2021/01/27 11:05:45;;;;;;;2.25;1.98;;;-0.90;99.90;;;;;;5005228;28;83790;-84
2021/01/27 11:08:14;;;;;;;4.47;2.30;;;-0.90;99.90;;;;;;5020845;28;83255;-83
2021/01/27 11:10:41;;;;;;;1.77;1.50;;;-0.90;99.90;;;;;;5001202;28;85048;-84
2021/01/27 11:13:07;;;;;;;5.47;3.90;;;;;;;;;;5002800;28;84037;-84
2021/01/27 11:15:34;;;;;;;2.67;1.77;;;;;;;;;;5012265;28;83234;-82
2021/01/27 11:18:00;;;;;;;3.13;2.85;;;;;;;;;;5003922;28;83706;-85
2021/01/27 11:20:26;;;;;;;3.88;1.70;;;-1.00;99.90;;;;;;4998403;28;84243;-84
2021/01/27 11:22:53;;;;;;;2.97;2.25;;;-1.10;99.90;;;;;;4998017;28;84331;-84
2021/01/27 11:25:25;;;;;;;3.22;2.13;;;-1.30;99.90;;;;;;5004471;28;83864;-81
2021/01/27 11:27:51;;;;;;;3.35;1.65;;;-1.30;99.90;;;;;;5004595;28;83778;-81
2021/01/27 11:30:21;;;;;;;2.40;1.58;;;-1.30;99.90;;;;;;5000053;28;87337;-83
2021/01/27 11:32:47;;;;;;;2.95;1.88;;;-1.30;99.90;;;;;;5006148;28;84529;-82
2021/01/27 11:35:14;;;;;;;2.53;1.80;;;-1.40;99.90;;;;;;5013179;28;83903;-84
2021/01/27 11:37:40;;;;;;;3.50;1.83;;;-1.40;99.90;;;;;;5011382;28;83358;-83
2021/01/27 11:40:07;;;;;;;2.67;2.10;;;-1.30;99.90;;;;;;4998799;28;84051;-83
2021/01/27 11:42:33;;;;;;;11.38;5.82;;;-1.30;99.90;;;;;;5008396;28;85428;-83
2021/01/27 11:44:59;;;;;;;4.30;3.00;;;-1.30;99.90;;;;;;4998419;28;83605;-83
2021/01/27 11:47:25;;;;;;;2.85;1.85;;;-1.20;99.90;;;;;;5004044;28;83735;-83
2021/01/27 11:49:55;;;;;;;4.85;2.20;;;-1.20;99.90;;;;;;5020377;28;84125;-81
2021/01/27 11:52:22;;;;;;;1.48;1.38;;;-1.20;99.90;;;;;;5011241;28;85363;-83
2021/01/27 11:54:50;;;;;;;4.00;2.40;;;-1.30;99.90;;;;;;5002634;28;83964;-84
2021/01/27 11:57:19;;;;;;;4.07;2.72;;;-1.30;99.90;;;;;;5006171;28;83820;-83
2021/01/27 11:59:45;;;;;;;8.50;3.72;;;-1.30;99.90;;;;;;5016386;28;84563;-81
2021/01/27 12:02:10;;;;;;;8.77;3.88;;;-1.40;99.90;;;;;;5001480;28;83585;-82
2021/01/27 12:04:36;;;;;;;5.65;3.03;;;-1.40;99.90;;;;;;5004316;28;83412;-84
2021/01/27 12:07:04;;;;;;;11.25;5.95;;;-1.40;99.90;;;;;;5012131;28;83458;-82
2021/01/27 12:09:29;;;;;;;6.25;3.20;;;-1.40;99.90;;;;;;5005874;28;84289;-82
2021/01/27 12:11:58;;;;;;;6.28;3.30;;;-1.40;99.90;;;;;;5014348;28;83121;-84
2021/01/27 12:14:24;;;;;;;2.08;1.90;;;-1.40;99.90;;;;;;5015734;28;86080;-83
2021/01/27 12:16:56;;;;;;;2.10;1.95;;;-1.40;99.90;;;;;;5012049;28;83199;-80
2021/01/27 12:21:58;;;;;;;3.08;2.03;;;-1.30;99.90;;;;;;5058527;23;86349;-83
2021/01/27 12:24:24;;;;;;;3.72;2.67;;;-1.30;99.90;;;;;;4958790;28;83791;-83
2021/01/27 12:26:51;;;;;;;3.97;2.88;;;-1.30;99.90;;;;;;4958486;28;83780;-84
2021/01/27 12:29:17;;;;;;;2.70;2.47;;;-1.20;99.90;;;;;;4960216;28;84618;-84
2021/01/27 12:31:44;;;;;;;7.13;3.30;;;-1.20;99.90;;;;;;4957604;28;83777;-83
2021/01/27 12:34:11;;;;;;;3.47;2.03;;;-1.10;99.90;;;;;;4956017;28;83595;-85
2021/01/27 12:36:37;;;;;;;2.17;1.85;;;-1.10;99.90;;;;;;4966935;28;83141;-82
2021/01/27 12:39:04;;;;;;;7.10;3.05;;;-1.10;99.90;;;;;;4965346;28;84267;-83
2021/01/27 12:41:30;;;;;;;2.45;2.25;;;-1.20;99.90;;;;;;4966132;28;86495;-84
2021/01/27 12:43:55;;;;;;;2.58;2.20;;;-1.10;99.90;;;;;;4964950;28;83674;-81
2021/01/27 12:46:22;;;;;;;2.80;2.70;;;;;;;;;;4959110;28;83229;-85
2021/01/27 12:48:47;;;;;;;3.88;2.55;;;-1.10;99.90;;;;;;4961266;28;83752;-85
2021/01/27 12:51:13;;;;;;;2.80;2.28;;;-1.00;99.90;;;;;;4956881;28;84881;-84
2021/01/27 12:53:45;;;;;;;2.05;1.85;;;-0.90;99.90;;;;;;4961780;28;83424;-84
2021/01/27 12:56:11;;;;;;;;;;;-0.90;99.90;;;;;;4961285;28;83736;-84
2021/01/27 12:58:41;;;;;;;2.10;1.65;;;-0.90;99.90;;;;;;4960593;28;83584;-85
2021/01/27 13:01:07;;;;;;;2.53;2.22;;;;;;;;;;4957686;28;84684;-85
2021/01/27 13:03:34;;;;;;;2.58;1.85;;;;;;;;;;4957219;28;83771;-85
2021/01/27 13:05:59;;;;;;;1.08;1.02;;;-1.00;99.90;;;;;;4955062;28;83129;-82
2021/01/27 13:08:26;;;;;;;1.35;1.25;;;-0.80;99.90;;;;;;4954013;28;85078;-84
2021/01/27 13:10:52;;;;;;;1.88;1.67;;;;;;;;;;4950984;28;83574;-85
2021/01/27 13:13:23;;;;;;;1.77;1.60;;;-0.70;99.90;;;;;;4953947;28;83440;-85
2021/01/27 13:15:53;;;;;;;3.70;1.67;;;-0.70;99.90;;;;;;4946447;28;83585;-84
2021/01/27 13:18:20;;;;;;;2.88;1.90;;;;;;;;;;4949865;28;85412;-85
2021/01/27 13:20:47;;;;;;;2.95;1.77;;;-0.60;99.90;;;;;;4968658;28;85508;-84
2021/01/27 13:23:13;;;;;;;2.67;1.30;;;-0.60;99.90;;;;;;4957351;28;83155;-84
2021/01/27 13:25:40;;;;;;;2.05;1.80;;;;;;;;;;4954742;28;83262;-83
2021/01/27 13:28:12;;;;;;;1.75;1.58;;;-0.60;99.90;;;;;;4955139;28;86802;-83
2021/01/27 13:30:39;;;;;;;2.63;1.83;;;-0.50;99.90;;;;;;4946871;28;84455;-85
2021/01/27 13:33:30;;;;;;;3.03;2.00;;;-0.40;99.90;;;;;;4959217;28;83232;-83
2021/01/27 13:35:56;;;;;;;3.88;2.00;;;-0.40;99.90;;;;;;4959776;28;83376;-84
2021/01/27 13:43:27;;;;;;;4.85;2.58;;;-0.50;99.90;;;;;;4957243;28;83174;-83
2021/01/27 13:45:54;;;;;;;2.45;2.25;;;-0.50;99.90;;;;;;4956083;28;83832;-83
2021/01/27 13:48:20;;;;;;;8.27;2.97;;;;;;;;;;4952142;28;84813;-83
2021/01/27 13:50:46;;;;;;;2.40;2.15;;;-0.50;99.90;;;;;;4956280;28;84905;-84
2021/01/27 13:53:12;;;;;;;16.58;2.00;;;-0.60;99.90;;;;;;4955734;28;85497;-85
2021/01/27 13:55:37;;;;;;;1.60;1.50;;;0.50;99.90;;;;;;4956933;28;83593;-84
2021/01/27 13:58:05;;;;;;;1.55;1.45;;;-0.60;99.90;;;;;;4944427;28;83863;-84
2021/01/27 14:00:38;;;;;;;4.07;2.17;;;-0.50;99.90;;;;;;4946744;28;84747;-84
2021/01/27 14:06:11;;;;;;;6.75;3.75;;;;;;;;;;4955913;28;83806;-84
2021/01/27 14:08:40;;;;;;;3.60;2.22;;;-0.60;99.90;;;;;;4959406;28;84028;-85
2021/01/27 14:11:11;;;;;;;5.45;3.63;;;-0.60;99.90;;;;;;4959753;28;83589;-84
2021/01/27 14:13:41;;;;;;;4.88;3.22;;;-0.60;99.90;;;;;;4959718;28;83741;-84
2021/01/27 14:16:08;;;;;;;;;;;-0.60;99.90;;;;;;4956784;28;83569;-84
2021/01/27 14:18:54;;;;;;;7.50;2.38;;;-0.60;99.90;;;;;;4941522;28;84619;-83
2021/01/27 14:22:02;;;;;;;9.20;5.35;;;-0.70;99.90;;;;;;4957427;28;84659;-84
2021/01/27 14:24:48;;;;;;;2.95;2.67;;;;;;;;;;4950083;28;83866;-84
2021/01/27 14:27:56;;;;;;;2.55;2.35;;;-0.70;99.90;;;;;;4953689;28;83878;-84
2021/01/27 14:30:32;;;;;;;6.22;3.28;;;-0.70;99.90;;;;;;4946825;28;84470;-82
2021/01/27 14:33:03;;;;;;;2.08;1.90;;;-0.70;99.90;;;;;;4957470;28;83966;-84
2021/01/27 14:35:37;;;;;;;2.80;2.35;;;;;;;;;;4949714;28;83888;-84
2021/01/27 14:38:04;;;;;;;2.50;1.90;;;;;;;;;;4963253;28;83167;-82
2021/01/27 14:40:33;;;;;;;2.88;2.38;;;-0.80;99.90;;;;;;4964680;28;84809;-84
2021/01/27 14:42:59;;;;;;;2.63;2.20;;;;;;;;;;4973296;28;83491;-83
2021/01/27 14:45:30;;;;;;;4.82;2.15;;;-0.80;99.90;;;;;;4975908;28;83760;-84
2021/01/27 14:47:59;;;;;;;2.22;1.95;;;;;;;;;;4975442;28;83531;-83
2021/01/27 14:50:30;;;;;;;3.63;2.28;;;-0.70;99.90;;;;;;4976118;28;83842;-84
2021/01/27 14:52:59;;;;;;;6.18;4.20;;;-0.70;99.90;;;;;;4972547;28;84802;-83
2021/01/27 14:55:27;;;;;;;5.78;4.15;;;-0.70;99.90;;;;;;4973437;28;85041;-85
2021/01/27 14:57:53;;;;;;;5.38;3.17;;;;;;;;;;4976370;28;83845;-85
2021/01/27 15:00:24;;;;;;;2.83;2.42;;;-1.00;99.90;;;;;;4972969;28;85917;-84
2021/01/27 15:03:09;;;;;;;;;;;-0.90;99.90;;;;;;4977191;28;84320;-84
2021/01/27 15:05:36;;;;;;;5.85;2.75;;;;;;;;;;4973861;28;83705;-85
2021/01/27 15:08:02;;;;;;;3.95;2.88;;;;;;;;;;4974889;28;84090;-84
2021/01/27 15:10:29;;;;;;;4.60;2.10;;;-0.90;99.90;;;;;;4977019;28;87751;-85
2021/01/27 15:12:56;;;;;;;17.45;3.00;;;;;;;;;;4976372;28;83596;-84
2021/01/27 15:15:22;;;;;;;4.18;2.45;;;-0.90;99.90;;;;;;4977468;28;83666;-83
2021/01/27 15:17:50;;;;;;;3.38;2.10;;;;;;;;;;4977211;28;83707;-84
2021/01/27 15:20:28;;;;;;;2.05;1.88;;;-0.90;99.90;;;;;;4979077;28;83556;-84
2021/01/27 15:23:14;;;;;;;2.13;1.75;;;-0.90;99.90;;;;;;4976786;28;86007;-83
2021/01/27 15:25:40;;;;;;;4.85;3.63;;;-0.90;99.90;;;;;;4978727;28;83973;-84
2021/01/27 15:28:07;;;;;;;3.90;2.90;;;-0.90;99.90;;;;;;4979256;28;83701;-84
2021/01/27 15:30:33;;;;;;;3.05;2.08;;;;;;;;;;4958064;28;84710;-85
2021/01/27 15:32:59;;;;;;;3.83;2.78;;;;;;;;;;4993947;28;85389;-83
2021/01/27 15:35:28;;;;;;;3.00;2.25;;;-1.00;99.90;;;;;;4976514;28;83619;-84
2021/01/27 15:37:54;;;;;;;3.92;3.03;;;;;;;;;;4982930;28;83739;-84
2021/01/27 15:40:26;;;;;;;4.38;3.67;;;;;;;;;;4979179;28;83854;-84
2021/01/27 15:42:54;;;;;;;4.75;3.53;;;-0.80;99.90;;;;;;4979891;28;84262;-83
2021/01/27 15:45:21;;;;;;;3.55;3.10;;;-0.90;99.90;;;;;;4978785;28;83500;-84
2021/01/27 15:47:47;;;;;;;4.70;3.53;;;;;;;;;;4978369;28;83524;-84
2021/01/27 15:50:15;;;;;;;5.88;3.10;;;-0.90;99.90;;;;;;4979369;28;86538;-85
2021/01/27 15:52:41;;;;;;;2.38;2.17;;;-0.80;99.90;;;;;;4982034;28;84823;-83
2021/01/27 15:55:08;;;;;;;3.50;2.72;;;-0.80;99.90;;;;;;4985493;28;83296;-83
2021/01/27 15:57:34;;;;;;;2.95;2.67;;;;;;;;;;4976856;28;83491;-85
2021/01/27 16:00:00;;;;;;;4.07;3.40;;;-0.80;99.90;;;;;;4977640;28;83775;-84
2021/01/27 16:02:26;;;;;;;2.78;2.10;;;;;;;;;;4974668;28;83634;-84
2021/01/27 16:04:52;;;;;;;4.53;3.58;;;-0.80;99.90;;;;;;4970673;28;84452;-83
2021/01/27 16:07:18;;;;;;;2.38;2.00;;;;;;;;;;4972896;28;83396;-83
2021/01/27 16:09:46;;;;;;;2.97;2.33;;;-0.80;99.90;;;;;;4978891;28;83753;-85
2021/01/27 16:12:12;;;;;;;4.28;2.95;;;;;;;;;;4977164;28;84413;-82
2021/01/27 16:14:38;;;;;;;4.00;2.47;;;;;;;;;;4977183;28;83750;-85
2021/01/27 16:17:04;;;;;;;3.78;2.92;;;-0.80;99.90;;;;;;4977337;28;83749;-84
2021/01/27 16:19:30;;;;;;;4.13;1.92;;;;;;;;;;4973106;28;84589;-83
2021/01/27 16:21:58;;;;;;;4.72;3.65;;;-0.70;99.90;;;;;;4973647;28;86442;-84
2021/01/27 16:24:24;;;;;;;3.85;2.33;;;-0.80;99.90;;;;;;4974625;28;83606;-84
2021/01/27 16:26:50;;;;;;;6.05;3.25;;;;;;;;;;4970484;28;84049;-84
2021/01/27 16:29:17;;;;;;;4.82;3.63;;;-0.70;99.90;;;;;;4972080;28;84025;-83
2021/01/27 16:31:43;;;;;;;4.50;3.53;;;-0.70;99.90;;;;;;4964821;28;83889;-85
2021/01/27 16:34:12;;;;;;;4.18;3.00;;;-0.60;99.90;;;;;;4970392;28;83873;-82
2021/01/27 16:36:41;;;;;;;5.45;2.97;;;;;;;;;;4970968;28;83956;-81
2021/01/27 16:39:08;;;;;;;1.75;1.65;;;;;;;;;;4972505;28;84941;-84
2021/01/27 16:41:34;;;;;;;3.53;2.97;;;;;;;;;;4968408;28;84221;-83
2021/01/27 16:44:00;;;;;;;2.53;2.30;;;;;;;;;;4974278;28;83747;-86
2021/01/27 16:46:26;;;;;;;2.95;2.63;;;-0.50;99.90;;;;;;4970902;28;83443;-84
2021/01/27 16:48:53;;;;;;;3.28;2.28;;;-0.50;99.90;;;;;;4964805;28;87588;-84
2021/01/27 16:51:21;;;;;;;4.43;2.38;;;-0.40;99.90;;;;;;4972446;28;84176;-83
2021/01/27 16:53:46;;;;;;;2.65;2.28;;;-0.50;99.90;;;;;;4974449;28;83059;-83
2021/01/27 16:56:17;;;;;;;2.65;2.28;;;;;;;;;;4971018;28;83993;-84
2021/01/27 16:58:45;;;;;;;2.03;1.80;;;;;;;;;;4974821;28;83610;-85
2021/01/27 17:01:10;;;;;;;5.20;2.40;;;-0.40;99.90;;;;;;4956908;28;84864;-83
2021/01/27 17:03:36;;;;;;;2.85;2.63;;;-0.50;99.90;;;;;;4960208;28;83747;-81
2021/01/27 17:06:02;;;;;;;2.55;2.35;;;-0.50;99.90;;;;;;4969307;28;83731;-85
2021/01/27 17:08:31;;;;;;;2.92;2.35;;;-0.40;99.90;;;;;;4965339;28;86244;-84
2021/01/27 17:10:57;;;;;;;4.35;2.50;;;;;;;;;;4956794;28;85963;-84
2021/01/27 17:13:23;;;;;;;4.38;3.05;;;;;;;;;;4975078;28;83807;-84
2021/01/27 17:15:50;;;;;;;2.17;1.98;;;;;;;;;;4992997;28;83723;-82
2021/01/27 17:18:16;;;;;;;2.83;2.38;;;-0.40;99.90;;;;;;4976809;28;85042;-81
2021/01/27 17:20:42;;;;;;;3.70;2.65;;;-0.30;99.90;;;;;;4970134;28;84213;-84
2021/01/27 17:23:36;;;;;;;3.40;2.72;;;-0.30;99.90;;;;;;4966589;28;84286;-85
2021/01/27 17:26:06;;;;;;;2.50;2.05;;;;;;;;;;4973611;28;83412;-85
2021/01/27 17:28:46;;;;;;;3.50;2.53;;;-0.20;99.90;;;;;;4969156;28;85087;-85
2021/01/27 17:31:33;;;;;;;4.00;2.63;;;-0.20;99.90;;;;;;4974839;28;83424;-83
2021/01/27 17:34:03;;;;;;;1.77;1.67;;;-0.20;99.90;;;;;;4958956;28;83531;-85
2021/01/27 17:37:07;;;;;;;4.80;2.63;;;-0.20;99.90;;;;;;4973183;28;84071;-84
2021/01/27 17:39:56;;;;;;;2.45;2.25;;;-0.10;99.90;;;;;;4895079;28;83697;-84